Flight Track Log - Related Links

Times and Time Zones

All times are in EDT time to prevent confusion due to time zone crossing. See the DAL3799 flight status page for this flight to view local times or setup timezone preferences in your user account.

Time Position Orientation Groundspeed Altitude Reporting Facility
EDT Latitude Longitude Course Direction KTS MPH feet Rate Location/Type
Fri 09:15:57 AM 33.6500 -84.3667 252° West 161 185 3,300  Level Atlanta TRACON
Fri 09:16:57 AM 33.6667 -84.3000 73° East 228 262 5,200 2,400 Climbing Atlanta TRACON
Fri 09:17:57 AM 33.7333 -84.2833 12° North 294 338 8,100 2,380 Climbing Atlanta TRACON
Fri 09:18:00 AM 33.8001 -84.5095 270° West  Level FlightAware
Fri 09:19:00 AM 33.7915 -84.6476 252° West  Level FlightAware
Fri 09:20:00 AM 33.7549 -84.7802 252° West  Level FlightAware
Fri 09:20:01 AM 33.8125 -84.4364 302° West 290 334 12,500  Level Atlanta Center
Fri 09:21:00 AM 33.7182 -84.9126 252° West  Level FlightAware
Fri 09:21:01 AM 33.8078 -84.5839 268° West 380 437 13,900  Level Atlanta Center
Fri 09:22:01 AM 33.7800 -84.7136 256° West 385 443 16,500 2,100 Climbing Atlanta Center
Fri 09:23:01 AM 33.7456 -84.8483 253° West 403 464 18,100 1,650 Climbing Atlanta Center
Fri 09:24:01 AM 33.7133 -84.9803 254° West 413 475 19,800 1,350 Climbing Atlanta Center
Fri 09:25:01 AM 33.6769 -85.1172 252° West 423 487 20,800 1,300 Climbing Atlanta Center
Fri 09:26:01 AM 33.6506 -85.2592 257° West 428 493 22,400 1,850 Climbing Atlanta Center
Fri 09:27:01 AM 33.6531 -85.4064 271° West 439 505 24,500 1,700 Climbing Atlanta Center
Fri 09:28:01 AM 33.6642 -85.5364 276° West 439 505 25,800 1,150 Climbing Atlanta Center
Fri 09:29:01 AM 33.6936 -85.6817 284° West 444 511 26,800 1,000 Climbing Atlanta Center
Fri 09:30:01 AM 33.7186 -85.8244 282° West 450 518 27,800 1,200 Climbing Atlanta Center
Fri 09:31:01 AM 33.7478 -85.9700 284° West 450 518 29,200 1,450 Climbing Atlanta Center
Fri 09:32:01 AM 33.7725 -86.1156 282° West 450 518 30,700 1,550 Climbing Atlanta Center
Fri 09:33:01 AM 33.8014 -86.2586 284° West 445 512 32,300 1,150 Climbing Atlanta Center
Fri 09:34:01 AM 33.8281 -86.3994 283° West 445 512 33,000 650 Climbing Atlanta Center
Fri 09:35:01 AM 33.8542 -86.5478 282° West 445 512 33,600 500 Climbing Atlanta Center
Fri 09:36:01 AM 33.8825 -86.7011 283° West 457 526 34,000 200 Climbing Atlanta Center
Fri 09:37:01 AM 33.9103 -86.8547 282° West 463 533 34,000  Level Atlanta Center
Fri 09:39:20 AM 33.9742 -87.2111 282° West 483 556 34,000  Level Memphis Center
Fri 09:40:20 AM 34.0075 -87.3828 283° West 468 539 34,000  Level Memphis Center
Fri 09:41:20 AM 34.0364 -87.5447 282° West 474 545 34,000  Level Memphis Center
Fri 09:42:20 AM 34.0608 -87.6994 281° West 479 551 34,000  Level Memphis Center
Fri 09:43:20 AM 34.0867 -87.8492 282° West 479 551 34,000 100 Level Memphis Center
Fri 09:44:20 AM 34.1128 -88.0014 282° West 466 536 34,200 300 Climbing Memphis Center
Fri 09:45:20 AM 34.1383 -88.1386 283° West 466 536 34,600 650 Climbing Memphis Center
Fri 09:46:20 AM 34.1642 -88.3164 280° West 486 559 35,500 900 Climbing Memphis Center
Fri 09:47:20 AM 34.1894 -88.4689 281° West 481 554 36,400 1,000 Climbing Memphis Center
Fri 09:48:20 AM 34.2169 -88.6214 282° West 476 548 37,500 800 Climbing Memphis Center
Fri 09:49:20 AM 34.2397 -88.7692 281° West 465 535 38,000 250 Climbing Memphis Center
Fri 09:50:20 AM 34.2644 -88.9119 282° West 454 522 38,000  Level Memphis Center
Fri 09:51:20 AM 34.2869 -89.0650 280° West 448 516 38,000  Level Memphis Center
Fri 09:52:20 AM 34.3114 -89.2106 282° West 448 516 38,000  Level Memphis Center
Fri 09:53:20 AM 34.3336 -89.3561 281° West 448 516 38,000  Level Memphis Center
Fri 09:54:20 AM 34.3575 -89.5042 281° West 448 516 38,000  Level Memphis Center
Fri 09:55:20 AM 34.3814 -89.6550 281° West 448 516 38,000  Level Memphis Center
Fri 09:56:20 AM 34.4031 -89.8083 280° West 453 521 38,000  Level Memphis Center
Fri 09:57:20 AM 34.4267 -89.9442 282° West 461 531 38,000  Level Memphis Center
Fri 09:58:20 AM 34.4500 -90.0953 281° West 461 531 38,000  Level Memphis Center
Fri 09:59:20 AM 34.4731 -90.2464 281° West 468 539 38,000  Level Memphis Center
Fri 10:00:20 AM 34.4983 -90.3975 282° West 468 539 38,000  Level Memphis Center
Fri 10:01:20 AM 34.5211 -90.5614 280° West 468 539 38,000  Level Memphis Center
Fri 10:02:20 AM 34.5458 -90.7153 281° West 463 533 38,000  Level Memphis Center
Fri 10:03:20 AM 34.5642 -90.8589 279° West 456 525 38,000  Level Memphis Center
Fri 10:04:20 AM 34.5883 -91.0056 281° West 442 509 38,000  Level Memphis Center
Fri 10:05:20 AM 34.6083 -91.1519 279° West 452 520 38,000  Level Memphis Center
Fri 10:06:20 AM 34.6283 -91.3011 279° West 452 520 38,000  Level Memphis Center
Fri 10:07:20 AM 34.6522 -91.4503 281° West 452 520 38,000  Level Memphis Center
Fri 10:08:20 AM 34.6758 -91.5997 281° West 452 520 38,000  Level Memphis Center
Fri 10:09:20 AM 34.6911 -91.7311 278° West 447 514 38,000  Level Memphis Center
Fri 10:10:20 AM 34.7122 -91.8806 280° West 447 514 38,000  Level Memphis Center
Fri 10:11:20 AM 34.7311 -92.0325 279° West 452 520 38,000  Level Memphis Center
Fri 10:12:20 AM 34.7519 -92.1819 280° West 452 520 38,000  Level Memphis Center
Fri 10:13:20 AM 34.7728 -92.3317 280° West 452 520 38,000  Level Memphis Center
Fri 10:14:20 AM 34.7931 -92.4839 279° West 452 520 38,000  Level Memphis Center
Fri 10:15:20 AM 34.8114 -92.6361 278° West 452 520 38,000  Level Memphis Center
Fri 10:16:20 AM 34.8333 -92.8036 279° West 452 520 38,000  Level Memphis Center
Fri 10:17:20 AM 34.8531 -92.9586 279° West 457 526 38,000  Level Memphis Center
Fri 10:18:20 AM 34.8728 -93.1111 279° West 462 532 38,000  Level Memphis Center
Fri 10:19:20 AM 34.8922 -93.2661 279° West 467 537 38,000  Level Memphis Center
Fri 10:20:20 AM 34.9094 -93.4136 278° West 467 537 38,000  Level Memphis Center
Fri 10:21:20 AM 34.9306 -93.5739 279° West 467 537 38,000  Level Memphis Center
Fri 10:22:20 AM 34.9514 -93.7292 279° West 467 537 38,000  Level Memphis Center
Fri 10:23:20 AM 34.9700 -93.8844 278° West 467 537 38,000  Level Memphis Center
Fri 10:24:20 AM 34.9864 -94.0372 278° West 467 537 38,000  Level Memphis Center
Fri 10:25:20 AM 35.0047 -94.1928 278° West 467 537 38,000  Level Memphis Center
Fri 10:26:20 AM 35.0250 -94.3483 279° West 467 537 38,000 -50 Level Memphis Center
Fri 10:27:20 AM 35.0408 -94.5014 277° West 467 537 37,900  Descending Memphis Center
Fri 10:27:39 AM 35.0503 -94.5503 283° West 468 539 38,000 76 Climbing Fort Center
Fri 10:28:39 AM 35.0639 -94.6944 277° West 478 550 38,000  Level Fort Center
Fri 10:29:39 AM 35.0817 -94.8461 278° West 473 544 38,000  Level Fort Center
Fri 10:30:39 AM 35.0994 -95.0028 278° West 473 544 38,000 -350 Level Fort Center
Fri 10:31:39 AM 35.1147 -95.1522 277° West 459 528 37,300 -1,400 Descending Fort Center
Fri 10:32:39 AM 35.1300 -95.3067 277° West 459 528 35,200 -2,050 Descending Fort Center
Fri 10:33:39 AM 35.1492 -95.4558 279° West 459 528 33,200 -2,000 Descending Fort Center
Fri 10:34:39 AM 35.1639 -95.6081 277° West 459 528 31,200 -2,000 Descending Fort Center
Fri 10:35:39 AM 35.1786 -95.7650 277° West 464 534 29,200 -2,100 Descending Fort Center
Fri 10:36:39 AM 35.1953 -95.9275 277° West 456 525 27,000 -2,100 Descending Fort Center
Fri 10:37:39 AM 35.2114 -96.0769 278° West 450 518 25,000 -2,000 Descending Fort Center
Fri 10:38:39 AM 35.2233 -96.2242 276° West 443 510 23,000 -2,000 Descending Fort Center
Fri 10:39:39 AM 35.2392 -96.3611 278° West 437 503 21,000 -2,000 Descending Fort Center
Fri 10:40:39 AM 35.2528 -96.4958 277° West 421 484 19,000 -1,850 Descending Fort Center
Fri 10:41:39 AM 35.2661 -96.6278 277° West 403 464 17,300 -1,850 Descending Fort Center
Fri 10:42:26 AM 35.2750 -96.7347 276° West 384 442 15,700 -2,000 Descending Fort Center
Fri 10:43:27 AM 35.2800 -96.8592 273° West 361 415 13,700 -1,918 Descending Fort Center
Fri 10:44:28 AM 35.2783 -96.9686 269° West 318 366 11,800 -1,488 Descending Fort Center
Fri 10:45:28 AM 35.2744 -97.0653 267° West 265 305 10,700 -1,701 Descending Fort Center
Fri 10:46:35 AM 35.2664 -97.1744 265° West 271 312 8,200 -1,969 Descending Fort Center
Fri 10:47:36 AM 35.2603 -97.2661 265° West 269 310 6,500 -1,672 Descending Fort Center
Fri 10:48:37 AM 35.2539 -97.3525 265° West 252 290 4,800 -1,240 Descending Fort Center
Fri 10:49:37 AM 35.2497 -97.4314 266° West 234 269 4,000 -496 Descending Fort Center
Fri 10:50:38 AM 35.2519 -97.5050 272° West 207 238 3,800 -344 Descending Fort Center
Fri 10:51:39 AM 35.2686 -97.5661 288° West 220 253 3,300 -492 Descending Fort Center

Login

Don't have an account? Register now (free) for customized features, flight alerts, and more!